Time;durP1;ratioP1;P1;durP2;ratioP2;P2;SDS_P1;SDS_P2;PMS_P1;PMS_P2;Temp;Humidity;BMP_temperature;BMP_pressure;BME280_temperature;BME280_humidity;BME280_pressure;Samples;Min_cycle;Max_cycle;Signal;HPM_P1;HPM_P2
2023/08/11 00:01:04;;;;;;;6.65;5.15;;;;;;;;;;5119650;28;20084;-82
2023/08/11 00:03:32;;;;;;;5.97;5.28;;;;;;;;;;5119026;28;20075;-82
2023/08/11 00:06:00;;;;;;;7.00;6.10;;;;;;;;;;5118690;28;20415;-82
2023/08/11 00:08:27;;;;;;;5.88;5.38;;;;;;;;;;5117510;28;20044;-83
2023/08/11 00:10:54;;;;;;;5.82;5.32;;;;;;;;;;5117885;28;20560;-83
2023/08/11 00:13:22;;;;;;;5.93;5.38;;;;;;;;;;5118458;28;20075;-82
2023/08/11 00:15:49;;;;;;;6.82;5.50;;;;;;;;;;5116290;28;20071;-81
2023/08/11 00:18:16;;;;;;;6.15;5.57;;;;;;;;;;5116354;28;20058;-82
2023/08/11 00:20:44;;;;;;;9.63;5.72;;;;;;;;;;5117240;28;20043;-82
2023/08/11 00:23:11;;;;;;;8.43;5.38;;;;;;;;;;5117796;28;20063;-81
2023/08/11 00:25:38;;;;;;;6.30;5.70;;;;;;;;;;5117445;28;20052;-83
2023/08/11 00:28:05;;;;;;;6.85;5.30;;;;;;;;;;5116203;28;20130;-82
2023/08/11 00:30:33;;;;;;;10.35;5.53;;;;;;;;;;5119780;28;20047;-83
2023/08/11 00:33:00;;;;;;;6.10;5.60;;;;;;;;;;5118842;28;20044;-83
2023/08/11 00:35:28;;;;;;;6.05;5.45;;;;;;;;;;5116448;28;20044;-82
2023/08/11 00:37:55;;;;;;;6.53;5.75;;;;;;;;;;5117308;28;20044;-82
2023/08/11 00:40:23;;;;;;;6.53;5.38;;;;;;;;;;5118427;28;20104;-83
2023/08/11 00:42:50;;;;;;;6.68;5.15;;;;;;;;;;5116528;28;20457;-82
2023/08/11 00:45:18;;;;;;;6.10;5.40;;;;;;;;;;5116405;28;20048;-82
2023/08/11 00:47:45;;;;;;;8.15;5.55;;;;;;;;;;5116624;28;20085;-83
2023/08/11 00:50:15;;;;;;;7.82;5.57;;;;;;;;;;5118388;28;20550;-83
2023/08/11 00:52:45;;;;;;;9.55;5.78;;;;;;;;;;5117364;28;20404;-83
2023/08/11 00:55:13;;;;;;;10.68;6.05;;;;;;;;;;5117297;28;20039;-81
2023/08/11 00:57:41;;;;;;;7.70;5.72;;;;;;;;;;5117685;28;20059;-82
2023/08/11 01:00:12;;;;;;;8.63;6.43;;;;;;;;;;5119290;28;20052;-82
2023/08/11 01:02:42;;;;;;;11.68;7.15;;;;;;;;;;5117484;28;20055;-83
2023/08/11 01:05:10;;;;;;;10.18;6.28;;;;;;;;;;5117577;28;20138;-81
2023/08/11 01:07:52;;;;;;;7.30;6.60;;;;;;;;;;5119420;28;20513;-82
2023/08/11 01:10:28;;;;;;;8.25;6.70;;;;;;;;;;5120147;28;20096;-83
2023/08/11 01:13:17;;;;;;;6.85;6.28;;;;;;;;;;5122082;28;20482;-83
2023/08/11 01:15:49;;;;;;;7.25;5.82;;;;;;;;;;5122003;28;20043;-83
2023/08/11 01:18:17;;;;;;;7.03;6.32;;;;;;;;;;5123672;28;20048;-83
2023/08/11 01:20:44;;;;;;;7.68;6.00;;;;;;;;;;5120136;28;20048;-83
2023/08/11 01:23:18;;;;;;;7.63;6.82;;;;;;;;;;5119486;28;20048;-83
2023/08/11 01:25:47;;;;;;;6.18;5.57;;;;;;;;;;5119606;28;20059;-83
2023/08/11 01:28:15;;;;;;;8.70;7.03;;;;;;;;;;5120871;28;20055;-82
2023/08/11 01:30:42;;;;;;;11.52;6.90;;;;;;;;;;5124541;28;20051;-83
2023/08/11 01:33:09;;;;;;;6.88;6.28;;;;;;;;;;5125357;28;20086;-83
2023/08/11 01:35:37;;;;;;;8.77;6.50;;;;;;;;;;5127199;28;20049;-83
2023/08/11 01:38:12;;;;;;;7.60;6.80;;;;;;;;;;5130017;28;20051;-83
2023/08/11 01:40:40;;;;;;;7.22;6.03;;;;;;;;;;5131804;28;20048;-83
2023/08/11 01:43:10;;;;;;;6.30;5.80;;;;;;;;;;5127672;28;20043;-82
2023/08/11 01:45:37;;;;;;;7.90;5.82;;;;;;;;;;5126386;28;20077;-83
2023/08/11 01:48:05;;;;;;;8.35;6.32;;;;;;;;;;5133652;28;20259;-83
2023/08/11 01:50:32;;;;;;;7.85;6.05;;;;;;;;;;5120676;28;20048;-82
2023/08/11 01:52:59;;;;;;;6.85;6.18;;;;;;;;;;5118278;28;20116;-82
2023/08/11 01:55:28;;;;;;;7.20;6.38;;;;;;;;;;5118332;28;20506;-82
2023/08/11 01:57:56;;;;;;;7.68;6.35;;;;;;;;;;5118202;28;20424;-82
2023/08/11 02:00:27;;;;;;;6.85;6.25;;;;;;;;;;5119531;28;20071;-82
2023/08/11 02:02:55;;;;;;;7.70;6.57;;;;;;;;;;5117027;28;20048;-83
2023/08/11 02:05:24;;;;;;;6.78;5.55;;;;;;;;;;5117448;28;20126;-81
2023/08/11 02:07:52;;;;;;;10.25;6.47;;;;;;;;;;5117944;27;20490;-82
2023/08/11 02:10:20;;;;;;;7.63;6.45;;;;;;;;;;5117188;28;20075;-82
2023/08/11 02:12:47;;;;;;;9.38;6.63;;;;;;;;;;5116294;28;20496;-82
2023/08/11 02:15:15;;;;;;;7.85;7.07;;;;;;;;;;5116345;28;20526;-82
2023/08/11 02:17:42;;;;;;;8.02;7.15;;;;;;;;;;5115414;28;20048;-83
2023/08/11 02:20:20;;;;;;;7.55;6.82;;;;;;;;;;5115881;28;20059;-82
2023/08/11 02:22:49;;;;;;;8.18;7.38;;;;;;;;;;5117469;28;20044;-82
2023/08/11 02:25:16;;;;;;;8.75;7.85;;;;;;;;;;5116961;27;20051;-82
2023/08/11 02:27:43;;;;;;;10.82;7.22;;;;;;;;;;5117471;28;20082;-83
2023/08/11 02:30:12;;;;;;;8.15;7.35;;;;;;;;;;5116622;28;20039;-82
2023/08/11 02:32:40;;;;;;;8.15;7.43;;;;;;;;;;5116852;28;20063;-82
2023/08/11 02:35:07;;;;;;;10.65;7.93;;;;;;;;;;5116807;28;20044;-82
2023/08/11 02:37:35;;;;;;;8.45;6.30;;;;;;;;;;5116512;28;20104;-81
2023/08/11 02:40:02;;;;;;;11.90;6.60;;;;;;;;;;5116708;28;20055;-83
2023/08/11 02:42:29;;;;;;;11.75;7.05;;;;;;;;;;5117145;28;20055;-82
2023/08/11 02:44:57;;;;;;;8.88;6.60;;;;;;;;;;5116459;28;20063;-81
2023/08/11 02:47:24;;;;;;;9.38;7.10;;;;;;;;;;5114670;28;20051;-81
2023/08/11 02:49:52;;;;;;;9.27;7.03;;;;;;;;;;5115608;28;20047;-82
2023/08/11 02:52:19;;;;;;;11.05;7.07;;;;;;;;;;5114975;28;20465;-83
2023/08/11 02:54:47;;;;;;;7.32;6.35;;;;;;;;;;5115170;28;20043;-82
2023/08/11 02:57:14;;;;;;;9.18;6.60;;;;;;;;;;5117225;28;20044;-82
2023/08/11 02:59:41;;;;;;;6.07;5.43;;;;;;;;;;5120501;28;20051;-83
2023/08/11 03:02:09;;;;;;;7.28;6.22;;;;;;;;;;5119439;28;20101;-81
2023/08/11 03:04:36;;;;;;;10.27;6.97;;;;;;;;;;5120369;28;20065;-82
2023/08/11 03:07:05;;;;;;;9.98;6.72;;;;;;;;;;5118079;28;20051;-82
2023/08/11 03:09:32;;;;;;;8.40;7.40;;;;;;;;;;5117634;28;20047;-82
2023/08/11 03:11:59;;;;;;;10.63;7.57;;;;;;;;;;5120134;28;20051;-83
2023/08/11 03:14:27;;;;;;;8.45;7.55;;;;;;;;;;5121005;28;20044;-83
2023/08/11 03:16:54;;;;;;;10.25;7.30;;;;;;;;;;5118586;28;20048;-82
2023/08/11 03:19:22;;;;;;;8.73;7.45;;;;;;;;;;5118225;28;20104;-82
2023/08/11 03:21:49;;;;;;;8.43;7.57;;;;;;;;;;5118500;28;20496;-83
2023/08/11 03:24:16;;;;;;;9.85;7.40;;;;;;;;;;5117350;28;20047;-82
2023/08/11 03:26:44;;;;;;;12.32;7.57;;;;;;;;;;5116219;28;20537;-82
2023/08/11 03:29:11;;;;;;;14.23;8.52;;;;;;;;;;5116188;28;20054;-82
2023/08/11 03:31:38;;;;;;;13.23;7.80;;;;;;;;;;5116717;28;20062;-81
2023/08/11 03:34:05;;;;;;;9.75;7.68;;;;;;;;;;5116649;28;20072;-82
2023/08/11 03:36:33;;;;;;;13.07;8.68;;;;;;;;;;5117153;28;20044;-83
2023/08/11 03:39:00;;;;;;;11.30;8.63;;;;;;;;;;5117011;28;20527;-82
2023/08/11 03:41:27;;;;;;;10.15;8.38;;;;;;;;;;5114905;28;20050;-81
2023/08/11 03:43:55;;;;;;;16.52;8.48;;;;;;;;;;5114537;28;20047;-82
2023/08/11 03:46:22;;;;;;;8.52;7.15;;;;;;;;;;5116280;28;20058;-81
2023/08/11 03:48:49;;;;;;;15.50;7.72;;;;;;;;;;5114679;28;20058;-82
2023/08/11 03:51:16;;;;;;;9.73;7.55;;;;;;;;;;5114473;28;20097;-82
2023/08/11 03:53:44;;;;;;;8.65;7.85;;;;;;;;;;5113810;28;20043;-82
2023/08/11 03:56:11;;;;;;;10.57;6.97;;;;;;;;;;5114156;28;20058;-82
2023/08/11 03:58:38;;;;;;;7.35;6.70;;;;;;;;;;5114891;28;20096;-81
2023/08/11 04:01:06;;;;;;;9.50;7.53;;;;;;;;;;5113138;28;20044;-82
2023/08/11 04:03:33;;;;;;;13.02;8.13;;;;;;;;;;5114912;28;20130;-82
2023/08/11 04:06:01;;;;;;;16.30;8.32;;;;;;;;;;5112871;28;20249;-82
2023/08/11 04:08:28;;;;;;;16.63;8.07;;;;;;;;;;5112882;28;20543;-81
2023/08/11 04:10:56;;;;;;;7.65;6.82;;;;;;;;;;5113285;28;20047;-81
2023/08/11 04:13:23;;;;;;;13.40;7.95;;;;;;;;;;5114588;28;20044;-82
2023/08/11 04:15:51;;;;;;;12.25;7.75;;;;;;;;;;5114756;28;20119;-82
2023/08/11 04:18:19;;;;;;;10.77;7.85;;;;;;;;;;5112757;28;20043;-81
2023/08/11 04:20:49;;;;;;;14.10;9.23;;;;;;;;;;5112639;28;20051;-81
2023/08/11 04:23:17;;;;;;;10.20;9.15;;;;;;;;;;5112654;28;20055;-81
2023/08/11 04:25:44;;;;;;;13.75;8.82;;;;;;;;;;5114080;28;20056;-82
2023/08/11 04:28:12;;;;;;;15.63;8.43;;;;;;;;;;5115542;28;20055;-81
2023/08/11 04:30:39;;;;;;;9.57;8.52;;;;;;;;;;5112766;28;20051;-81
2023/08/11 04:33:07;;;;;;;13.05;9.95;;;;;;;;;;5114689;28;20073;-83
2023/08/11 04:35:34;;;;;;;11.02;8.35;;;;;;;;;;5118375;28;20047;-83
2023/08/11 04:38:01;;;;;;;11.15;9.43;;;;;;;;;;5117492;28;20503;-82
2023/08/11 04:40:29;;;;;;;17.65;11.50;;;;;;;;;;5117042;28;20044;-82
2023/08/11 04:42:56;;;;;;;12.77;10.55;;;;;;;;;;5119522;28;20051;-82
2023/08/11 04:45:23;;;;;;;14.10;10.65;;;;;;;;;;5120248;28;20487;-82
2023/08/11 04:47:51;;;;;;;12.90;9.52;;;;;;;;;;5123925;28;20402;-83
2023/08/11 04:50:18;;;;;;;10.95;9.85;;;;;;;;;;5122260;28;20051;-82
2023/08/11 04:52:45;;;;;;;9.80;8.48;;;;;;;;;;5122757;28;20092;-82
2023/08/11 04:55:13;;;;;;;13.55;10.40;;;;;;;;;;5120372;28;20101;-82
2023/08/11 04:57:40;;;;;;;16.73;9.95;;;;;;;;;;5122206;28;20047;-83
2023/08/11 05:00:13;;;;;;;9.65;8.60;;;;;;;;;;5119512;28;20055;-82
2023/08/11 05:02:44;;;;;;;11.90;9.45;;;;;;;;;;5121234;28;20052;-81
2023/08/11 05:05:12;;;;;;;14.63;9.60;;;;;;;;;;5119230;28;20059;-82
2023/08/11 05:07:39;;;;;;;9.98;9.00;;;;;;;;;;5119015;28;20499;-82
2023/08/11 05:10:07;;;;;;;9.20;7.47;;;;;;;;;;5119055;28;20054;-82
2023/08/11 05:12:35;;;;;;;9.60;8.38;;;;;;;;;;5119819;28;20067;-82
2023/08/11 05:15:03;;;;;;;14.48;8.48;;;;;;;;;;5120084;28;20515;-81
2023/08/11 05:17:31;;;;;;;13.15;8.52;;;;;;;;;;5119162;28;20051;-81
2023/08/11 05:19:58;;;;;;;10.15;7.80;;;;;;;;;;5116944;28;20055;-81
2023/08/11 05:22:25;;;;;;;9.85;7.82;;;;;;;;;;5117393;28;20411;-83
2023/08/11 05:24:53;;;;;;;9.15;8.15;;;;;;;;;;5116566;28;20039;-81
2023/08/11 05:27:20;;;;;;;17.00;11.48;;;;;;;;;;5117420;28;20051;-81
2023/08/11 05:29:48;;;;;;;15.38;12.02;;;;;;;;;;5116329;28;20051;-82
2023/08/11 05:32:15;;;;;;;11.02;9.55;;;;;;;;;;5116493;28;20043;-82
2023/08/11 05:34:42;;;;;;;8.63;7.78;;;;;;;;;;5115880;28;20051;-81
2023/08/11 05:37:10;;;;;;;13.80;6.68;;;;;;;;;;5115989;28;20043;-82
2023/08/11 05:39:38;;;;;;;7.95;4.63;;;;;;;;;;5118823;28;20051;-81
2023/08/11 05:42:07;;;;;;;8.23;4.95;;;;;;;;;;5120428;28;20048;-82
2023/08/11 05:44:34;;;;;;;5.38;3.03;;;;;;;;;;5119228;28;20111;-82
2023/08/11 05:47:01;;;;;;;5.57;3.33;;;;;;;;;;5117227;28;20047;-81
2023/08/11 05:49:29;;;;;;;4.78;2.70;;;;;;;;;;5117912;28;20055;-83
2023/08/11 05:51:56;;;;;;;2.88;2.65;;;;;;;;;;5117309;28;20051;-82
2023/08/11 05:54:24;;;;;;;4.78;3.28;;;;;;;;;;5118314;28;20039;-83
2023/08/11 05:56:52;;;;;;;3.65;2.80;;;;;;;;;;5118733;28;20056;-83
2023/08/11 05:59:21;;;;;;;3.95;2.85;;;;;;;;;;5119280;28;20078;-83
2023/08/11 06:01:48;;;;;;;4.93;2.47;;;;;;;;;;5119884;28;20051;-82
2023/08/11 06:04:16;;;;;;;2.88;2.20;;;;;;;;;;5116170;28;20396;-83
2023/08/11 06:06:43;;;;;;;4.90;2.33;;;;;;;;;;5116438;28;20044;-83
2023/08/11 06:09:11;;;;;;;2.67;2.47;;;;;;;;;;5117105;28;20047;-82
2023/08/11 06:11:38;;;;;;;3.40;2.33;;;;;;;;;;5117511;28;20052;-82
2023/08/11 06:14:05;;;;;;;4.30;2.30;;;;;;;;;;5115717;28;20105;-82
2023/08/11 06:16:33;;;;;;;4.78;2.20;;;;;;;;;;5116835;28;20047;-83
2023/08/11 06:19:00;;;;;;;4.40;2.40;;;;;;;;;;5116674;28;20466;-83
2023/08/11 06:21:27;;;;;;;2.47;1.80;;;;;;;;;;5117643;28;20580;-83
2023/08/11 06:23:55;;;;;;;4.45;2.35;;;;;;;;;;5122067;28;20058;-83
2023/08/11 06:26:22;;;;;;;2.97;2.00;;;;;;;;;;5119677;28;20108;-83
2023/08/11 06:28:49;;;;;;;11.35;2.85;;;;;;;;;;5123303;28;20052;-84
2023/08/11 06:31:19;;;;;;;1.90;1.63;;;;;;;;;;5119726;28;20055;-82
2023/08/11 06:33:47;;;;;;;2.38;1.85;;;;;;;;;;5119362;28;20046;-80
2023/08/11 06:36:14;;;;;;;6.90;2.30;;;;;;;;;;5120536;28;20430;-81
2023/08/11 06:38:42;;;;;;;5.70;2.28;;;;;;;;;;5121230;28;20054;-82
2023/08/11 06:41:09;;;;;;;18.63;3.42;;;;;;;;;;5118250;28;20074;-81
2023/08/11 06:43:38;;;;;;;14.18;2.75;;;;;;;;;;5117287;28;20203;-81
2023/08/11 06:46:06;;;;;;;19.65;3.22;;;;;;;;;;5118325;28;20415;-82
2023/08/11 06:48:34;;;;;;;19.92;3.40;;;;;;;;;;5116399;28;20047;-82
2023/08/11 06:51:02;;;;;;;8.90;2.72;;;;;;;;;;5117277;28;20485;-82
2023/08/11 06:53:29;;;;;;;12.30;2.72;;;;;;;;;;5115911;28;20052;-82
2023/08/11 06:55:56;;;;;;;14.98;2.92;;;;;;;;;;5117084;28;20097;-83
2023/08/11 06:58:23;;;;;;;16.23;3.30;;;;;;;;;;5117087;28;20044;-82
2023/08/11 07:00:52;;;;;;;19.83;2.88;;;;;;;;;;5116845;28;20059;-83
2023/08/11 07:03:20;;;;;;;8.73;2.42;;;;;;;;;;5118280;28;20051;-82
2023/08/11 07:05:51;;;;;;;28.10;3.70;;;;;;;;;;5117630;28;20442;-82
2023/08/11 07:08:19;;;;;;;23.88;3.30;;;;;;;;;;5118296;28;20139;-82
2023/08/11 07:10:46;;;;;;;20.95;3.28;;;;;;;;;;5117199;28;20043;-82
2023/08/11 07:13:13;;;;;;;10.68;2.72;;;;;;;;;;5117087;28;20050;-83
2023/08/11 07:15:42;;;;;;;13.80;2.80;;;;;;;;;;5117562;28;20070;-83
2023/08/11 07:18:13;;;;;;;17.73;3.13;;;;;;;;;;5117095;28;20047;-83
2023/08/11 07:20:43;;;;;;;14.82;2.75;;;;;;;;;;5116420;28;20094;-82
2023/08/11 07:23:11;;;;;;;11.65;3.28;;;;;;;;;;5117399;28;20047;-82
2023/08/11 07:25:39;;;;;;;10.25;2.30;;;;;;;;;;5117670;28;20393;-82
2023/08/11 07:28:06;;;;;;;4.65;2.38;;;;;;;;;;5117713;28;20108;-81
2023/08/11 07:30:33;;;;;;;9.07;2.28;;;;;;;;;;5116346;28;20420;-81
2023/08/11 07:33:01;;;;;;;7.32;2.47;;;;;;;;;;5117232;28;20061;-82
2023/08/11 07:35:29;;;;;;;6.65;2.50;;;;;;;;;;5117155;28;20044;-80
2023/08/11 07:37:56;;;;;;;5.60;2.35;;;;;;;;;;5117233;28;20104;-83
2023/08/11 07:40:24;;;;;;;3.83;2.35;;;;;;;;;;5118103;28;20116;-82
2023/08/11 07:42:51;;;;;;;9.70;2.47;;;;;;;;;;5121021;28;20062;-82
2023/08/11 07:45:19;;;;;;;9.07;2.25;;;;;;;;;;5119200;28;20544;-82
2023/08/11 07:47:46;;;;;;;6.30;1.95;;;;;;;;;;5117267;28;20492;-81
2023/08/11 07:50:14;;;;;;;4.80;2.17;;;;;;;;;;5118645;28;20058;-82
2023/08/11 07:52:41;;;;;;;5.70;1.80;;;;;;;;;;5116564;28;20054;-80
2023/08/11 07:55:08;;;;;;;4.10;1.85;;;;;;;;;;5120629;28;20043;-80
2023/08/11 07:57:36;;;;;;;3.00;1.90;;;;;;;;;;5118418;28;20043;-81
2023/08/11 08:00:05;;;;;;;5.65;1.90;;;;;;;;;;5118803;28;20039;-81
2023/08/11 08:02:32;;;;;;;2.03;1.80;;;;;;;;;;5118512;28;20067;-80
2023/08/11 08:04:59;;;;;;;3.47;1.98;;;;;;;;;;5120630;28;20047;-81
2023/08/11 08:07:39;;;;;;;5.18;1.50;;;;;;;;;;5119711;28;20060;-80
2023/08/11 08:10:08;;;;;;;8.38;1.98;;;;;;;;;;5119431;28;20048;-81
2023/08/11 08:12:37;;;;;;;2.28;1.50;;;;;;;;;;5121794;28;20043;-82
2023/08/11 08:15:07;;;;;;;2.92;1.58;;;;;;;;;;5120160;28;20055;-80
2023/08/11 08:17:35;;;;;;;3.25;1.67;;;;;;;;;;5123729;28;20062;-81
2023/08/11 08:20:04;;;;;;;1.40;1.30;;;;;;;;;;5125757;28;20073;-80
2023/08/11 08:22:35;;;;;;;5.82;1.83;;;;;;;;;;5128043;28;20056;-80
2023/08/11 08:25:06;;;;;;;4.65;1.55;;;;;;;;;;5128081;28;20059;-80
2023/08/11 08:27:34;;;;;;;3.38;1.83;;;;;;;;;;5127801;28;20048;-80
2023/08/11 08:30:01;;;;;;;2.25;1.75;;;;;;;;;;5127658;28;20496;-80
2023/08/11 08:32:29;;;;;;;2.78;1.45;;;;;;;;;;5124038;28;20106;-80
2023/08/11 08:34:56;;;;;;;4.80;2.08;;;;;;;;;;5117444;28;20054;-80
2023/08/11 08:37:24;;;;;;;2.88;1.80;;;;;;;;;;5119974;28;20047;-80
2023/08/11 08:39:52;;;;;;;2.65;1.52;;;;;;;;;;5118998;28;20043;-79
2023/08/11 08:42:21;;;;;;;3.25;1.58;;;;;;;;;;5122041;28;20056;-80
2023/08/11 08:44:49;;;;;;;1.70;1.38;;;;;;;;;;5120796;28;20051;-80
2023/08/11 08:47:20;;;;;;;6.90;1.55;;;;;;;;;;5122738;28;20051;-80
2023/08/11 08:49:48;;;;;;;6.35;1.75;;;;;;;;;;5121571;28;20048;-80
2023/08/11 08:52:16;;;;;;;4.22;1.63;;;;;;;;;;5122797;28;20043;-80
2023/08/11 08:54:44;;;;;;;3.47;1.70;;;;;;;;;;5124251;28;20096;-79
2023/08/11 08:57:12;;;;;;;6.07;1.80;;;;;;;;;;5123639;28;20055;-80
2023/08/11 08:59:43;;;;;;;1.50;1.35;;;;;;;;;;5126725;28;20048;-79
2023/08/11 09:02:11;;;;;;;2.40;1.42;;;;;;;;;;5124477;28;20053;-79
2023/08/11 09:04:38;;;;;;;3.00;1.30;;;;;;;;;;5123526;28;20495;-80
2023/08/11 09:07:06;;;;;;;3.85;1.13;;;;;;;;;;5123003;28;20054;-79
2023/08/11 09:09:35;;;;;;;2.10;1.40;;;;;;;;;;5116397;28;20047;-80
2023/08/11 09:12:02;;;;;;;5.90;1.70;;;;;;;;;;5116532;28;20044;-79
2023/08/11 09:14:29;;;;;;;2.92;1.73;;;;;;;;;;5116460;28;20457;-81
2023/08/11 09:17:00;;;;;;;2.20;1.27;;;;;;;;;;5121262;28;20069;-79
2023/08/11 09:19:28;;;;;;;1.30;1.30;;;;;;;;;;5118513;28;20050;-80
2023/08/11 09:21:56;;;;;;;2.67;1.30;;;;;;;;;;5117278;28;20047;-80
2023/08/11 09:24:23;;;;;;;2.08;1.15;;;;;;;;;;5115445;28;20704;-79
2023/08/11 09:26:51;;;;;;;1.85;1.50;;;;;;;;;;5117469;28;20117;-79
2023/08/11 09:29:18;;;;;;;2.25;1.38;;;;;;;;;;5116434;28;20086;-80
2023/08/11 09:31:53;;;;;;;2.85;1.38;;;;;;;;;;5118237;28;20081;-79
2023/08/11 09:34:23;;;;;;;5.78;1.40;;;;;;;;;;5121628;28;20069;-80
2023/08/11 09:36:50;;;;;;;1.05;1.05;;;;;;;;;;5123628;28;20086;-81
2023/08/11 09:39:17;;;;;;;4.25;1.70;;;;;;;;;;5122743;28;20047;-81
2023/08/11 09:41:48;;;;;;;1.27;1.20;;;;;;;;;;5123329;28;20081;-80
2023/08/11 09:44:17;;;;;;;1.85;1.15;;;;;;;;;;5120401;28;20469;-80
2023/08/11 09:46:46;;;;;;;3.05;1.50;;;;;;;;;;5122343;28;20047;-81
2023/08/11 09:49:13;;;;;;;1.08;1.08;;;;;;;;;;5123442;28;20051;-81
2023/08/11 09:51:41;;;;;;;4.57;1.55;;;;;;;;;;5120604;28;20097;-80
2023/08/11 09:54:09;;;;;;;2.20;1.30;;;;;;;;;;5121863;28;20075;-80
2023/08/11 09:56:40;;;;;;;1.85;1.30;;;;;;;;;;5119633;28;20050;-80
2023/08/11 09:59:11;;;;;;;3.38;1.48;;;;;;;;;;5119184;28;20044;-81
2023/08/11 10:01:38;;;;;;;1.40;1.30;;;;;;;;;;5118418;28;20043;-80
2023/08/11 10:04:07;;;;;;;1.50;1.25;;;;;;;;;;5117745;28;20082;-81
2023/08/11 10:06:36;;;;;;;1.48;1.38;;;;;;;;;;5118352;28;20525;-81
2023/08/11 10:09:04;;;;;;;1.95;1.35;;;;;;;;;;5118152;28;20063;-80
2023/08/11 10:11:33;;;;;;;1.95;1.30;;;;;;;;;;5116284;28;20070;-80
2023/08/11 10:14:02;;;;;;;4.72;1.70;;;;;;;;;;5117884;28;20044;-80
2023/08/11 10:16:29;;;;;;;1.92;1.20;;;;;;;;;;5117767;28;20495;-81
2023/08/11 10:18:58;;;;;;;1.20;1.10;;;;;;;;;;5115627;28;20040;-79
2023/08/11 10:21:25;;;;;;;3.78;1.30;;;;;;;;;;5117346;28;20051;-81
2023/08/11 10:23:56;;;;;;;2.05;1.10;;;;;;;;;;5115749;28;20043;-80
2023/08/11 10:26:24;;;;;;;2.20;1.17;;;;;;;;;;5115701;28;20555;-80
2023/08/11 10:28:52;;;;;;;3.40;1.20;;;;;;;;;;5115895;28;20043;-80
2023/08/11 10:31:23;;;;;;;2.00;0.95;;;;;;;;;;5116749;28;20059;-79
2023/08/11 10:33:51;;;;;;;2.28;1.20;;;;;;;;;;5116169;28;20515;-80
2023/08/11 10:36:23;;;;;;;2.80;1.25;;;;;;;;;;5114512;28;20052;-79
2023/08/11 10:39:00;;;;;;;5.97;1.50;;;;;;;;;;5113568;28;20044;-80
2023/08/11 10:41:28;;;;;;;3.90;1.75;;;;;;;;;;5115204;28;20089;-82
2023/08/11 10:43:56;;;;;;;1.40;1.30;;;;;;;;;;5114696;28;20044;-81
2023/08/11 10:46:30;;;;;;;2.70;1.10;;;;;;;;;;5116106;28;20136;-80
2023/08/11 10:48:58;;;;;;;1.42;1.33;;;;;;;;;;5115790;28;20485;-80
2023/08/11 10:51:28;;;;;;;1.20;1.10;;;;;;;;;;5115942;28;20040;-80
2023/08/11 10:53:56;;;;;;;1.30;1.20;;;;;;;;;;5114525;28;20096;-80
2023/08/11 10:56:28;;;;;;;1.40;0.93;;;;;;;;;;5118377;28;20043;-81
2023/08/11 10:59:08;;;;;;;1.83;1.20;;;;;;;;;;5122158;28;20047;-81
2023/08/11 11:01:37;;;;;;;2.90;0.93;;;;;;;;;;5123304;28;20474;-80
2023/08/11 11:04:06;;;;;;;1.10;1.10;;;;;;;;;;5130417;28;20047;-81
2023/08/11 11:06:34;;;;;;;1.23;1.13;;;;;;;;;;5125436;28;20052;-80
2023/08/11 11:09:01;;;;;;;1.23;1.10;;;;;;;;;;5122053;28;20043;-81
2023/08/11 11:11:28;;;;;;;4.90;1.27;;;;;;;;;;5123098;28;20457;-81
2023/08/11 11:13:56;;;;;;;1.10;1.05;;;;;;;;;;5122150;28;20043;-79
2023/08/11 11:16:23;;;;;;;2.35;1.52;;;;;;;;;;5123022;28;20044;-81
2023/08/11 11:18:50;;;;;;;1.83;1.10;;;;;;;;;;5123178;28;20055;-81
2023/08/11 11:21:18;;;;;;;1.10;1.10;;;;;;;;;;5122512;28;20210;-80
2023/08/11 11:23:46;;;;;;;1.20;1.10;;;;;;;;;;5118863;28;20431;-81
2023/08/11 11:26:24;;;;;;;2.53;0.98;;;;;;;;;;5120037;28;20112;-80
2023/08/11 11:28:52;;;;;;;2.20;1.00;;;;;;;;;;5119949;28;20420;-80
2023/08/11 11:31:20;;;;;;;2.42;1.15;;;;;;;;;;5119966;28;20469;-81
2023/08/11 11:33:47;;;;;;;4.65;1.60;;;;;;;;;;5121565;28;20069;-81
2023/08/11 11:36:16;;;;;;;1.55;1.27;;;;;;;;;;5117498;28;20062;-80
2023/08/11 11:38:43;;;;;;;4.90;1.30;;;;;;;;;;5119139;28;20401;-80
2023/08/11 11:41:11;;;;;;;1.90;1.13;;;;;;;;;;5119489;28;20526;-80
2023/08/11 11:43:39;;;;;;;2.60;1.10;;;;;;;;;;5120619;28;20047;-80
2023/08/11 11:46:16;;;;;;;1.42;1.10;;;;;;;;;;5117475;28;20082;-80
2023/08/11 11:48:50;;;;;;;1.20;1.10;;;;;;;;;;5118304;28;20047;-80
2023/08/11 11:51:19;;;;;;;1.63;1.30;;;;;;;;;;5115914;28;20056;-79
2023/08/11 11:53:46;;;;;;;4.00;1.38;;;;;;;;;;5115327;28;20082;-79
2023/08/11 11:56:14;;;;;;;2.95;1.30;;;;;;;;;;5118886;28;20043;-80
2023/08/11 11:58:43;;;;;;;1.67;1.38;;;;;;;;;;5115797;28;20051;-79
2023/08/11 12:01:11;;;;;;;2.30;1.75;;;;;;;;;;5118024;28;20384;-80
2023/08/11 12:03:38;;;;;;;1.70;1.60;;;;;;;;;;5116615;28;20059;-80
2023/08/11 12:06:09;;;;;;;1.42;1.33;;;;;;;;;;5117798;28;20051;-80
2023/08/11 12:08:37;;;;;;;4.93;1.27;;;;;;;;;;5116992;28;20051;-80
2023/08/11 12:11:05;;;;;;;1.33;1.17;;;;;;;;;;5115157;28;20058;-79
2023/08/11 12:13:32;;;;;;;2.10;1.27;;;;;;;;;;5117159;28;20126;-79
2023/08/11 12:16:00;;;;;;;2.15;2.05;;;;;;;;;;5114926;28;20047;-80
2023/08/11 12:18:29;;;;;;;3.38;3.15;;;;;;;;;;5113514;28;20465;-79
2023/08/11 12:21:01;;;;;;;3.97;3.78;;;;;;;;;;5115359;28;20044;-79
2023/08/11 12:23:28;;;;;;;2.13;1.30;;;;;;;;;;5115888;28;20051;-80
2023/08/11 12:25:56;;;;;;;1.20;1.10;;;;;;;;;;5115011;28;20101;-80
2023/08/11 12:28:23;;;;;;;1.35;0.88;;;;;;;;;;5115459;28;20107;-81
2023/08/11 12:30:51;;;;;;;1.15;1.00;;;;;;;;;;5116450;28;20043;-81
2023/08/11 12:33:18;;;;;;;2.70;1.20;;;;;;;;;;5119923;28;20049;-81
2023/08/11 12:35:46;;;;;;;1.92;1.20;;;;;;;;;;5120812;28;20119;-81
2023/08/11 12:38:14;;;;;;;3.28;1.08;;;;;;;;;;5120060;28;20360;-80
2023/08/11 12:40:41;;;;;;;1.40;1.30;;;;;;;;;;5117912;28;20492;-79
2023/08/11 12:43:09;;;;;;;1.48;0.90;;;;;;;;;;5117344;28;20089;-80
2023/08/11 12:45:40;;;;;;;4.55;1.35;;;;;;;;;;5119851;28;20051;-80
2023/08/11 12:48:08;;;;;;;2.75;1.75;;;;;;;;;;5119883;28;20461;-80
2023/08/11 12:50:38;;;;;;;2.00;1.15;;;;;;;;;;5121367;28;20070;-81
2023/08/11 12:53:05;;;;;;;1.13;1.02;;;;;;;;;;5119009;28;20416;-81
2023/08/11 12:55:33;;;;;;;0.98;0.82;;;;;;;;;;5118191;28;20055;-80
2023/08/11 12:58:02;;;;;;;1.70;1.17;;;;;;;;;;5117179;28;20455;-80
2023/08/11 13:00:29;;;;;;;1.10;1.00;;;;;;;;;;5117487;28;20039;-81
2023/08/11 13:02:56;;;;;;;1.52;0.98;;;;;;;;;;5119413;28;20473;-80
2023/08/11 13:05:24;;;;;;;1.45;1.13;;;;;;;;;;5121183;28;20090;-82
2023/08/11 13:07:51;;;;;;;4.57;1.20;;;;;;;;;;5118073;28;20457;-82
2023/08/11 13:10:20;;;;;;;3.55;1.60;;;;;;;;;;5119022;28;20101;-81
2023/08/11 13:12:49;;;;;;;2.75;1.20;;;;;;;;;;5117991;28;20040;-80
2023/08/11 13:15:16;;;;;;;1.40;1.30;;;;;;;;;;5119141;28;20051;-80
2023/08/11 13:17:47;;;;;;;1.50;1.40;;;;;;;;;;5118317;28;20510;-80
2023/08/11 13:20:15;;;;;;;1.02;1.02;;;;;;;;;;5118525;28;20058;-81
2023/08/11 13:22:42;;;;;;;2.63;1.30;;;;;;;;;;5117696;28;20044;-80
2023/08/11 13:25:11;;;;;;;2.58;1.10;;;;;;;;;;5118260;28;20392;-80
2023/08/11 13:27:38;;;;;;;1.27;1.15;;;;;;;;;;5118289;28;20053;-79
2023/08/11 13:30:07;;;;;;;2.60;1.20;;;;;;;;;;5118545;28;20050;-80
2023/08/11 13:32:35;;;;;;;2.03;0.90;;;;;;;;;;5119673;28;20047;-80
2023/08/11 13:35:04;;;;;;;1.20;1.10;;;;;;;;;;5119283;28;20047;-80
2023/08/11 13:37:32;;;;;;;2.97;1.20;;;;;;;;;;5118176;28;20499;-79
2023/08/11 13:39:59;;;;;;;0.80;0.80;;;;;;;;;;5118171;28;20050;-80
2023/08/11 13:42:27;;;;;;;1.10;1.10;;;;;;;;;;5118677;28;20052;-80
2023/08/11 13:44:54;;;;;;;3.25;1.20;;;;;;;;;;5120046;28;20054;-80
2023/08/11 13:47:22;;;;;;;0.98;0.93;;;;;;;;;;5118266;28;20047;-80
2023/08/11 13:49:49;;;;;;;1.05;1.05;;;;;;;;;;5120042;28;20100;-80
2023/08/11 13:52:16;;;;;;;1.25;1.20;;;;;;;;;;5119851;28;20048;-81
2023/08/11 13:54:57;;;;;;;2.22;0.95;;;;;;;;;;5119487;28;20044;-80
2023/08/11 13:57:25;;;;;;;1.17;1.10;;;;;;;;;;5118329;28;20113;-79
2023/08/11 13:59:55;;;;;;;2.78;1.27;;;;;;;;;;5118404;28;20434;-80
2023/08/11 14:02:22;;;;;;;1.20;1.10;;;;;;;;;;5120211;28;20411;-80
2023/08/11 14:04:50;;;;;;;2.70;1.20;;;;;;;;;;5118848;28;20043;-80
2023/08/11 14:07:19;;;;;;;4.70;1.27;;;;;;;;;;5119153;28;20044;-79
2023/08/11 14:09:58;;;;;;;1.98;0.95;;;;;;;;;;5117716;28;20056;-80
2023/08/11 14:12:25;;;;;;;2.60;1.10;;;;;;;;;;5118582;28;20047;-80
2023/08/11 14:14:53;;;;;;;3.10;1.27;;;;;;;;;;5118020;28;20104;-79
2023/08/11 14:17:20;;;;;;;1.50;1.17;;;;;;;;;;5116303;28;20051;-80
2023/08/11 14:19:47;;;;;;;1.42;1.02;;;;;;;;;;5116031;28;20092;-80
2023/08/11 14:22:15;;;;;;;1.33;1.00;;;;;;;;;;5118565;28;20048;-81
2023/08/11 14:24:42;;;;;;;1.20;1.10;;;;;;;;;;5119608;28;20047;-80
2023/08/11 14:27:09;;;;;;;1.67;1.13;;;;;;;;;;5119470;28;20448;-81
2023/08/11 14:29:37;;;;;;;2.25;1.10;;;;;;;;;;5121373;28;20495;-81
2023/08/11 14:32:04;;;;;;;1.70;1.08;;;;;;;;;;5121198;28;20063;-80
2023/08/11 14:34:50;;;;;;;1.30;1.08;;;;;;;;;;5121625;28;20476;-80
2023/08/11 14:37:17;;;;;;;2.25;1.20;;;;;;;;;;5121802;28;20047;-80
2023/08/11 14:39:45;;;;;;;1.02;1.00;;;;;;;;;;5121670;28;20217;-80
2023/08/11 14:42:13;;;;;;;2.10;1.30;;;;;;;;;;5120989;28;20510;-80
2023/08/11 14:44:41;;;;;;;1.85;1.25;;;;;;;;;;5120213;28;20058;-80
2023/08/11 14:47:14;;;;;;;1.88;1.38;;;;;;;;;;5119840;28;20052;-82